sensor_id;sensor_type;location;lat;lon;timestamp;temperature;humidity
66722;SHT31;53633;49.932;10.884;2023-04-28T00:00:54;9.77;70.07
66722;SHT31;53633;49.932;10.884;2023-04-28T00:03:21;9.88;70.14
66722;SHT31;53633;49.932;10.884;2023-04-28T00:05:52;9.91;70.10
66722;SHT31;53633;49.932;10.884;2023-04-28T00:08:20;9.92;69.95
66722;SHT31;53633;49.932;10.884;2023-04-28T00:10:55;9.98;70.10
66722;SHT31;53633;49.932;10.884;2023-04-28T00:13:24;9.88;70.44
66722;SHT31;53633;49.932;10.884;2023-04-28T00:15:51;9.82;70.46
66722;SHT31;53633;49.932;10.884;2023-04-28T00:18:19;9.83;70.90
66722;SHT31;53633;49.932;10.884;2023-04-28T00:20:46;9.65;71.88
66722;SHT31;53633;49.932;10.884;2023-04-28T00:23:14;9.71;71.89
66722;SHT31;53633;49.932;10.884;2023-04-28T00:25:43;9.37;74.14
66722;SHT31;53633;49.932;10.884;2023-04-28T00:28:09;9.03;75.73
66722;SHT31;53633;49.932;10.884;2023-04-28T00:30:58;8.95;75.75
66722;SHT31;53633;49.932;10.884;2023-04-28T00:33:26;8.80;75.95
66722;SHT31;53633;49.932;10.884;2023-04-28T00:35:58;8.65;77.20
66722;SHT31;53633;49.932;10.884;2023-04-28T00:38:25;8.61;77.74
66722;SHT31;53633;49.932;10.884;2023-04-28T00:40:53;8.62;77.95
66722;SHT31;53633;49.932;10.884;2023-04-28T00:43:27;8.64;77.56
66722;SHT31;53633;49.932;10.884;2023-04-28T00:45:54;8.55;78.53
66722;SHT31;53633;49.932;10.884;2023-04-28T00:48:22;8.40;79.24
66722;SHT31;53633;49.932;10.884;2023-04-28T00:50:51;8.24;80.08
66722;SHT31;53633;49.932;10.884;2023-04-28T00:53:20;8.27;79.30
66722;SHT31;53633;49.932;10.884;2023-04-28T00:55:48;8.31;78.12
66722;SHT31;53633;49.932;10.884;2023-04-28T00:58:18;8.27;77.78
66722;SHT31;53633;49.932;10.884;2023-04-28T01:00:45;8.26;77.40
66722;SHT31;53633;49.932;10.884;2023-04-28T01:03:13;8.29;76.95
66722;SHT31;53633;49.932;10.884;2023-04-28T01:05:40;8.37;76.77
66722;SHT31;53633;49.932;10.884;2023-04-28T01:08:07;8.41;76.30
66722;SHT31;53633;49.932;10.884;2023-04-28T01:10:34;8.57;76.96
66722;SHT31;53633;49.932;10.884;2023-04-28T01:13:02;8.75;75.66
66722;SHT31;53633;49.932;10.884;2023-04-28T01:15:32;8.73;75.77
66722;SHT31;53633;49.932;10.884;2023-04-28T01:18:02;8.60;76.81
66722;SHT31;53633;49.932;10.884;2023-04-28T01:20:34;8.54;77.58
66722;SHT31;53633;49.932;10.884;2023-04-28T01:23:01;8.65;77.38
66722;SHT31;53633;49.932;10.884;2023-04-28T01:25:32;8.68;77.02
66722;SHT31;53633;49.932;10.884;2023-04-28T01:27:59;8.50;78.25
66722;SHT31;53633;49.932;10.884;2023-04-28T01:30:26;8.51;77.92
66722;SHT31;53633;49.932;10.884;2023-04-28T01:32:53;8.62;77.30
66722;SHT31;53633;49.932;10.884;2023-04-28T01:35:20;8.72;77.47
66722;SHT31;53633;49.932;10.884;2023-04-28T01:37:47;9.02;75.88
66722;SHT31;53633;49.932;10.884;2023-04-28T01:40:14;8.78;75.81
66722;SHT31;53633;49.932;10.884;2023-04-28T01:42:42;8.72;76.32
66722;SHT31;53633;49.932;10.884;2023-04-28T01:45:10;8.69;76.80
66722;SHT31;53633;49.932;10.884;2023-04-28T01:47:41;8.61;77.23
66722;SHT31;53633;49.932;10.884;2023-04-28T01:50:08;8.58;77.87
66722;SHT31;53633;49.932;10.884;2023-04-28T01:52:37;8.33;79.38
66722;SHT31;53633;49.932;10.884;2023-04-28T01:55:05;8.51;78.32
66722;SHT31;53633;49.932;10.884;2023-04-28T01:57:34;8.79;77.48
66722;SHT31;53633;49.932;10.884;2023-04-28T02:00:03;9.03;77.33
66722;SHT31;53633;49.932;10.884;2023-04-28T02:02:30;8.71;77.72
66722;SHT31;53633;49.932;10.884;2023-04-28T02:04:57;8.48;78.29
66722;SHT31;53633;49.932;10.884;2023-04-28T02:07:24;8.37;78.78
66722;SHT31;53633;49.932;10.884;2023-04-28T02:09:50;8.31;79.48
66722;SHT31;53633;49.932;10.884;2023-04-28T02:12:17;8.44;78.82
66722;SHT31;53633;49.932;10.884;2023-04-28T02:14:44;8.44;78.62
66722;SHT31;53633;49.932;10.884;2023-04-28T02:17:13;8.44;78.26
66722;SHT31;53633;49.932;10.884;2023-04-28T02:19:39;8.67;77.71
66722;SHT31;53633;49.932;10.884;2023-04-28T02:22:06;8.57;78.33
66722;SHT31;53633;49.932;10.884;2023-04-28T02:24:35;8.33;78.51
66722;SHT31;53633;49.932;10.884;2023-04-28T02:27:02;8.31;78.72
66722;SHT31;53633;49.932;10.884;2023-04-28T02:29:29;8.30;78.95
66722;SHT31;53633;49.932;10.884;2023-04-28T02:31:56;8.42;78.46
66722;SHT31;53633;49.932;10.884;2023-04-28T02:34:25;8.41;78.49
66722;SHT31;53633;49.932;10.884;2023-04-28T02:36:51;8.45;78.38
66722;SHT31;53633;49.932;10.884;2023-04-28T02:39:20;8.31;78.80
66722;SHT31;53633;49.932;10.884;2023-04-28T02:41:50;8.33;78.67
66722;SHT31;53633;49.932;10.884;2023-04-28T02:44:16;8.20;78.89
66722;SHT31;53633;49.932;10.884;2023-04-28T02:46:44;8.17;78.15
66722;SHT31;53633;49.932;10.884;2023-04-28T02:49:14;8.24;78.03
66722;SHT31;53633;49.932;10.884;2023-04-28T02:51:45;8.22;78.58
66722;SHT31;53633;49.932;10.884;2023-04-28T02:54:12;8.29;78.36
66722;SHT31;53633;49.932;10.884;2023-04-28T02:56:39;8.22;78.86
66722;SHT31;53633;49.932;10.884;2023-04-28T02:59:06;8.24;78.80
66722;SHT31;53633;49.932;10.884;2023-04-28T03:01:35;8.34;78.08
66722;SHT31;53633;49.932;10.884;2023-04-28T03:04:09;8.37;78.43
66722;SHT31;53633;49.932;10.884;2023-04-28T03:06:37;8.41;79.22
66722;SHT31;53633;49.932;10.884;2023-04-28T03:09:08;8.42;78.74
66722;SHT31;53633;49.932;10.884;2023-04-28T03:11:35;8.33;79.70
66722;SHT31;53633;49.932;10.884;2023-04-28T03:14:02;8.20;80.17
66722;SHT31;53633;49.932;10.884;2023-04-28T03:16:32;8.14;80.06
66722;SHT31;53633;49.932;10.884;2023-04-28T03:19:00;8.14;78.46
66722;SHT31;53633;49.932;10.884;2023-04-28T03:21:26;8.13;77.77
66722;SHT31;53633;49.932;10.884;2023-04-28T03:23:53;8.12;77.95
66722;SHT31;53633;49.932;10.884;2023-04-28T03:26:22;8.13;79.11
66722;SHT31;53633;49.932;10.884;2023-04-28T03:28:49;8.10;80.27
66722;SHT31;53633;49.932;10.884;2023-04-28T03:31:15;8.16;80.90
66722;SHT31;53633;49.932;10.884;2023-04-28T03:33:42;8.40;79.38
66722;SHT31;53633;49.932;10.884;2023-04-28T03:36:11;8.69;77.93
66722;SHT31;53633;49.932;10.884;2023-04-28T03:38:38;8.83;77.35
66722;SHT31;53633;49.932;10.884;2023-04-28T03:41:05;8.98;77.16
66722;SHT31;53633;49.932;10.884;2023-04-28T03:43:33;9.05;77.15
66722;SHT31;53633;49.932;10.884;2023-04-28T03:46:00;9.02;77.30
66722;SHT31;53633;49.932;10.884;2023-04-28T03:48:27;9.07;77.11
66722;SHT31;53633;49.932;10.884;2023-04-28T03:50:54;8.96;77.72
66722;SHT31;53633;49.932;10.884;2023-04-28T03:53:21;9.16;77.02
66722;SHT31;53633;49.932;10.884;2023-04-28T03:55:49;9.12;77.64
66722;SHT31;53633;49.932;10.884;2023-04-28T03:58:18;9.17;77.13
66722;SHT31;53633;49.932;10.884;2023-04-28T04:00:51;9.31;76.55
66722;SHT31;53633;49.932;10.884;2023-04-28T04:03:18;9.16;77.25
66722;SHT31;53633;49.932;10.884;2023-04-28T04:05:45;8.89;78.27
66722;SHT31;53633;49.932;10.884;2023-04-28T04:08:13;9.12;77.75
66722;SHT31;53633;49.932;10.884;2023-04-28T04:10:40;9.16;77.63
66722;SHT31;53633;49.932;10.884;2023-04-28T04:13:09;9.27;77.49
66722;SHT31;53633;49.932;10.884;2023-04-28T04:15:38;9.40;77.55
66722;SHT31;53633;49.932;10.884;2023-04-28T04:18:11;9.44;77.89
66722;SHT31;53633;49.932;10.884;2023-04-28T04:20:38;9.34;79.43
66722;SHT31;53633;49.932;10.884;2023-04-28T04:23:08;9.36;79.77
66722;SHT31;53633;49.932;10.884;2023-04-28T04:25:37;9.61;79.15
66722;SHT31;53633;49.932;10.884;2023-04-28T04:28:04;9.54;79.96
66722;SHT31;53633;49.932;10.884;2023-04-28T04:30:33;9.33;80.66
66722;SHT31;53633;49.932;10.884;2023-04-28T04:33:02;9.36;80.53
66722;SHT31;53633;49.932;10.884;2023-04-28T04:35:33;9.51;80.48
66722;SHT31;53633;49.932;10.884;2023-04-28T04:38:00;9.51;80.10
66722;SHT31;53633;49.932;10.884;2023-04-28T04:40:27;9.58;80.09
66722;SHT31;53633;49.932;10.884;2023-04-28T04:43:07;9.59;81.20
66722;SHT31;53633;49.932;10.884;2023-04-28T04:45:35;9.67;80.63
66722;SHT31;53633;49.932;10.884;2023-04-28T04:48:05;9.65;80.73
66722;SHT31;53633;49.932;10.884;2023-04-28T04:50:33;9.68;80.93
66722;SHT31;53633;49.932;10.884;2023-04-28T04:53:02;9.70;81.17
66722;SHT31;53633;49.932;10.884;2023-04-28T04:55:30;9.70;81.22
66722;SHT31;53633;49.932;10.884;2023-04-28T04:57:57;9.72;81.33
66722;SHT31;53633;49.932;10.884;2023-04-28T05:00:24;9.43;82.78
66722;SHT31;53633;49.932;10.884;2023-04-28T05:02:55;9.23;84.22
66722;SHT31;53633;49.932;10.884;2023-04-28T05:05:22;9.23;85.08
66722;SHT31;53633;49.932;10.884;2023-04-28T05:07:52;9.48;83.36
66722;SHT31;53633;49.932;10.884;2023-04-28T05:10:19;9.64;82.71
66722;SHT31;53633;49.932;10.884;2023-04-28T05:12:46;9.70;82.95
66722;SHT31;53633;49.932;10.884;2023-04-28T05:15:15;9.52;83.56
66722;SHT31;53633;49.932;10.884;2023-04-28T05:17:49;9.58;83.48
66722;SHT31;53633;49.932;10.884;2023-04-28T05:20:16;9.45;86.03
66722;SHT31;53633;49.932;10.884;2023-04-28T05:22:43;9.41;87.59
66722;SHT31;53633;49.932;10.884;2023-04-28T05:25:12;9.41;85.54
66722;SHT31;53633;49.932;10.884;2023-04-28T05:27:43;9.30;87.12
66722;SHT31;53633;49.932;10.884;2023-04-28T05:30:10;9.44;86.92
66722;SHT31;53633;49.932;10.884;2023-04-28T05:32:37;9.54;86.78
66722;SHT31;53633;49.932;10.884;2023-04-28T05:35:04;9.20;87.57
66722;SHT31;53633;49.932;10.884;2023-04-28T05:37:31;9.03;87.56
66722;SHT31;53633;49.932;10.884;2023-04-28T05:40:01;9.09;88.09
66722;SHT31;53633;49.932;10.884;2023-04-28T05:42:29;9.22;87.28
66722;SHT31;53633;49.932;10.884;2023-04-28T05:45:05;9.55;84.67
66722;SHT31;53633;49.932;10.884;2023-04-28T05:47:32;9.83;83.88
66722;SHT31;53633;49.932;10.884;2023-04-28T05:49:59;9.86;83.38
66722;SHT31;53633;49.932;10.884;2023-04-28T05:52:34;9.72;85.09
66722;SHT31;53633;49.932;10.884;2023-04-28T05:55:01;9.61;85.44
66722;SHT31;53633;49.932;10.884;2023-04-28T05:57:45;9.71;85.12
66722;SHT31;53633;49.932;10.884;2023-04-28T06:00:19;9.64;85.81
66722;SHT31;53633;49.932;10.884;2023-04-28T06:02:48;9.79;86.46
66722;SHT31;53633;49.932;10.884;2023-04-28T06:05:15;10.12;85.88
66722;SHT31;53633;49.932;10.884;2023-04-28T06:07:45;9.88;85.53
66722;SHT31;53633;49.932;10.884;2023-04-28T06:10:15;9.93;87.93
66722;SHT31;53633;49.932;10.884;2023-04-28T06:12:46;10.02;86.82
66722;SHT31;53633;49.932;10.884;2023-04-28T06:15:13;10.14;87.32
66722;SHT31;53633;49.932;10.884;2023-04-28T06:17:40;10.17;89.13
66722;SHT31;53633;49.932;10.884;2023-04-28T06:20:08;10.16;85.74
66722;SHT31;53633;49.932;10.884;2023-04-28T06:22:35;10.41;84.40
66722;SHT31;53633;49.932;10.884;2023-04-28T06:25:03;10.64;84.21
66722;SHT31;53633;49.932;10.884;2023-04-28T06:27:32;10.79;83.53
66722;SHT31;53633;49.932;10.884;2023-04-28T06:30:00;10.40;85.89
66722;SHT31;53633;49.932;10.884;2023-04-28T06:32:36;10.30;87.47
66722;SHT31;53633;49.932;10.884;2023-04-28T06:35:04;10.48;85.79
66722;SHT31;53633;49.932;10.884;2023-04-28T06:37:31;10.67;86.40
66722;SHT31;53633;49.932;10.884;2023-04-28T06:39:57;10.88;84.81
66722;SHT31;53633;49.932;10.884;2023-04-28T06:42:25;10.86;85.63
66722;SHT31;53633;49.932;10.884;2023-04-28T06:44:53;10.98;85.86
66722;SHT31;53633;49.932;10.884;2023-04-28T06:47:21;11.04;85.40
66722;SHT31;53633;49.932;10.884;2023-04-28T06:49:48;11.18;84.57
66722;SHT31;53633;49.932;10.884;2023-04-28T06:52:15;11.32;84.10
66722;SHT31;53633;49.932;10.884;2023-04-28T06:54:49;11.32;84.07
66722;SHT31;53633;49.932;10.884;2023-04-28T06:57:16;11.36;83.64
66722;SHT31;53633;49.932;10.884;2023-04-28T06:59:45;11.39;83.89
66722;SHT31;53633;49.932;10.884;2023-04-28T07:02:12;11.46;84.40
66722;SHT31;53633;49.932;10.884;2023-04-28T07:04:41;11.54;83.96
66722;SHT31;53633;49.932;10.884;2023-04-28T07:07:08;11.39;85.48
66722;SHT31;53633;49.932;10.884;2023-04-28T07:09:49;11.53;84.35
66722;SHT31;53633;49.932;10.884;2023-04-28T07:12:16;11.56;84.47
66722;SHT31;53633;49.932;10.884;2023-04-28T07:14:43;11.53;87.46
66722;SHT31;53633;49.932;10.884;2023-04-28T07:17:11;11.59;84.88
66722;SHT31;53633;49.932;10.884;2023-04-28T07:19:38;11.60;84.77
66722;SHT31;53633;49.932;10.884;2023-04-28T07:22:09;11.59;84.91
66722;SHT31;53633;49.932;10.884;2023-04-28T07:24:39;11.56;84.92
66722;SHT31;53633;49.932;10.884;2023-04-28T07:27:07;11.51;84.98
66722;SHT31;53633;49.932;10.884;2023-04-28T07:29:33;11.51;84.46
66722;SHT31;53633;49.932;10.884;2023-04-28T07:32:01;11.46;84.55
66722;SHT31;53633;49.932;10.884;2023-04-28T07:34:29;11.34;85.31
66722;SHT31;53633;49.932;10.884;2023-04-28T07:36:56;11.40;84.95
66722;SHT31;53633;49.932;10.884;2023-04-28T07:39:27;11.34;85.36
66722;SHT31;53633;49.932;10.884;2023-04-28T07:41:55;11.40;85.27
66722;SHT31;53633;49.932;10.884;2023-04-28T07:44:22;11.29;85.95
66722;SHT31;53633;49.932;10.884;2023-04-28T07:46:49;11.29;85.89
66722;SHT31;53633;49.932;10.884;2023-04-28T07:49:17;11.36;85.40
66722;SHT31;53633;49.932;10.884;2023-04-28T07:51:44;11.36;85.56
66722;SHT31;53633;49.932;10.884;2023-04-28T07:54:12;11.16;87.73
66722;SHT31;53633;49.932;10.884;2023-04-28T07:56:42;11.24;86.10
66722;SHT31;53633;49.932;10.884;2023-04-28T07:59:09;11.16;87.74
66722;SHT31;53633;49.932;10.884;2023-04-28T08:01:36;11.04;88.33
66722;SHT31;53633;49.932;10.884;2023-04-28T08:04:03;11.06;89.19
66722;SHT31;53633;49.932;10.884;2023-04-28T08:06:31;10.95;88.95
66722;SHT31;53633;49.932;10.884;2023-04-28T08:09:00;10.77;89.67
66722;SHT31;53633;49.932;10.884;2023-04-28T08:11:27;10.67;89.20
66722;SHT31;53633;49.932;10.884;2023-04-28T08:13:57;10.68;89.81
66722;SHT31;53633;49.932;10.884;2023-04-28T08:16:24;10.69;90.28
66722;SHT31;53633;49.932;10.884;2023-04-28T08:18:53;10.67;89.33
66722;SHT31;53633;49.932;10.884;2023-04-28T08:21:20;10.56;88.98
66722;SHT31;53633;49.932;10.884;2023-04-28T08:23:47;10.64;89.13
66722;SHT31;53633;49.932;10.884;2023-04-28T08:26:14;10.69;90.59
66722;SHT31;53633;49.932;10.884;2023-04-28T08:28:41;10.77;89.86
66722;SHT31;53633;49.932;10.884;2023-04-28T08:31:11;10.85;90.88
66722;SHT31;53633;49.932;10.884;2023-04-28T08:33:44;10.98;90.75
66722;SHT31;53633;49.932;10.884;2023-04-28T08:36:18;11.08;90.87
66722;SHT31;53633;49.932;10.884;2023-04-28T08:39:08;11.09;88.95
66722;SHT31;53633;49.932;10.884;2023-04-28T08:42:10;11.13;89.73
66722;SHT31;53633;49.932;10.884;2023-04-28T08:45:08;11.08;90.20
66722;SHT31;53633;49.932;10.884;2023-04-28T08:48:27;11.11;90.00
66722;SHT31;53633;49.932;10.884;2023-04-28T08:50:57;11.12;89.60
66722;SHT31;53633;49.932;10.884;2023-04-28T08:53:33;11.24;90.21
66722;SHT31;53633;49.932;10.884;2023-04-28T08:56:26;11.34;91.29
66722;SHT31;53633;49.932;10.884;2023-04-28T08:59:03;11.47;90.91
66722;SHT31;53633;49.932;10.884;2023-04-28T09:01:30;11.42;92.06
66722;SHT31;53633;49.932;10.884;2023-04-28T09:04:06;11.40;91.67
66722;SHT31;53633;49.932;10.884;2023-04-28T09:06:39;11.12;89.50
66722;SHT31;53633;49.932;10.884;2023-04-28T09:09:22;11.24;90.34
66722;SHT31;53633;49.932;10.884;2023-04-28T09:12:35;11.19;91.64
66722;SHT31;53633;49.932;10.884;2023-04-28T09:15:33;11.09;91.79
66722;SHT31;53633;49.932;10.884;2023-04-28T09:18:59;11.36;93.13
66722;SHT31;53633;49.932;10.884;2023-04-28T09:22:20;11.43;91.90
66722;SHT31;53633;49.932;10.884;2023-04-28T09:25:13;11.49;91.33
66722;SHT31;53633;49.932;10.884;2023-04-28T09:27:43;11.39;92.23
66722;SHT31;53633;49.932;10.884;2023-04-28T09:30:11;11.27;92.58
66722;SHT31;53633;49.932;10.884;2023-04-28T09:32:40;11.42;93.52
66722;SHT31;53633;49.932;10.884;2023-04-28T09:35:23;11.26;92.91
66722;SHT31;53633;49.932;10.884;2023-04-28T09:38:11;11.13;91.89
66722;SHT31;53633;49.932;10.884;2023-04-28T09:40:53;11.15;93.19
66722;SHT31;53633;49.932;10.884;2023-04-28T09:43:29;11.20;92.28
66722;SHT31;53633;49.932;10.884;2023-04-28T09:46:03;11.18;92.97
66722;SHT31;53633;49.932;10.884;2023-04-28T09:48:33;11.42;94.42
66722;SHT31;53633;49.932;10.884;2023-04-28T09:51:04;11.64;93.84
66722;SHT31;53633;49.932;10.884;2023-04-28T09:53:33;11.99;94.11
66722;SHT31;53633;49.932;10.884;2023-04-28T09:56:04;11.89;93.31
66722;SHT31;53633;49.932;10.884;2023-04-28T09:58:43;11.80;93.29
66722;SHT31;53633;49.932;10.884;2023-04-28T10:01:18;11.73;91.51
66722;SHT31;53633;49.932;10.884;2023-04-28T10:03:49;11.80;92.50
66722;SHT31;53633;49.932;10.884;2023-04-28T10:06:19;11.70;91.55
66722;SHT31;53633;49.932;10.884;2023-04-28T10:08:50;11.74;92.50
66722;SHT31;53633;49.932;10.884;2023-04-28T10:11:19;11.63;90.89
66722;SHT31;53633;49.932;10.884;2023-04-28T10:13:45;11.71;91.23
66722;SHT31;53633;49.932;10.884;2023-04-28T10:16:13;11.50;92.09
66722;SHT31;53633;49.932;10.884;2023-04-28T10:18:50;11.49;92.06
66722;SHT31;53633;49.932;10.884;2023-04-28T10:21:36;11.33;91.80
66722;SHT31;53633;49.932;10.884;2023-04-28T10:24:23;11.43;92.02
66722;SHT31;53633;49.932;10.884;2023-04-28T10:27:04;11.51;91.33
66722;SHT31;53633;49.932;10.884;2023-04-28T10:29:39;11.59;91.32
66722;SHT31;53633;49.932;10.884;2023-04-28T10:32:23;11.74;93.96
66722;SHT31;53633;49.932;10.884;2023-04-28T10:35:41;11.59;93.63
66722;SHT31;53633;49.932;10.884;2023-04-28T10:38:09;11.61;92.03
66722;SHT31;53633;49.932;10.884;2023-04-28T10:40:56;11.74;92.42
66722;SHT31;53633;49.932;10.884;2023-04-28T10:43:38;11.70;92.27
66722;SHT31;53633;49.932;10.884;2023-04-28T10:46:09;11.70;91.36
66722;SHT31;53633;49.932;10.884;2023-04-28T10:48:57;11.78;92.74
66722;SHT31;53633;49.932;10.884;2023-04-28T10:51:36;11.78;93.78
66722;SHT31;53633;49.932;10.884;2023-04-28T10:54:13;11.78;92.56
66722;SHT31;53633;49.932;10.884;2023-04-28T10:57:19;11.95;92.43
66722;SHT31;53633;49.932;10.884;2023-04-28T10:59:47;12.04;90.19
66722;SHT31;53633;49.932;10.884;2023-04-28T11:02:37;11.84;92.09
66722;SHT31;53633;49.932;10.884;2023-04-28T11:05:16;11.95;93.01
66722;SHT31;53633;49.932;10.884;2023-04-28T11:08:30;12.24;91.65
66722;SHT31;53633;49.932;10.884;2023-04-28T11:11:21;12.16;93.39
66722;SHT31;53633;49.932;10.884;2023-04-28T11:13:50;11.84;93.26
66722;SHT31;53633;49.932;10.884;2023-04-28T11:16:47;11.98;94.66
66722;SHT31;53633;49.932;10.884;2023-04-28T11:19:17;11.92;94.24
66722;SHT31;53633;49.932;10.884;2023-04-28T11:21:46;11.70;97.15
66722;SHT31;53633;49.932;10.884;2023-04-28T11:24:13;11.94;97.10
66722;SHT31;53633;49.932;10.884;2023-04-28T11:26:40;12.14;95.65
66722;SHT31;53633;49.932;10.884;2023-04-28T11:29:14;12.18;93.21
66722;SHT31;53633;49.932;10.884;2023-04-28T11:32:02;12.43;94.38
66722;SHT31;53633;49.932;10.884;2023-04-28T11:34:33;12.47;94.25
66722;SHT31;53633;49.932;10.884;2023-04-28T11:37:02;12.77;94.38
66722;SHT31;53633;49.932;10.884;2023-04-28T11:39:31;12.90;91.95
66722;SHT31;53633;49.932;10.884;2023-04-28T11:42:00;12.63;91.37
66722;SHT31;53633;49.932;10.884;2023-04-28T11:44:30;12.76;92.30
66722;SHT31;53633;49.932;10.884;2023-04-28T11:46:59;12.46;91.56
66722;SHT31;53633;49.932;10.884;2023-04-28T11:49:30;12.52;92.80
66722;SHT31;53633;49.932;10.884;2023-04-28T11:52:04;12.50;91.98
66722;SHT31;53633;49.932;10.884;2023-04-28T11:54:44;12.50;92.37
66722;SHT31;53633;49.932;10.884;2023-04-28T11:57:18;12.43;92.76
66722;SHT31;53633;49.932;10.884;2023-04-28T12:02:34;12.52;92.03
66722;SHT31;53633;49.932;10.884;2023-04-28T12:05:10;12.57;93.37
66722;SHT31;53633;49.932;10.884;2023-04-28T12:07:40;12.97;93.21
66722;SHT31;53633;49.932;10.884;2023-04-28T12:10:11;12.87;91.92
66722;SHT31;53633;49.932;10.884;2023-04-28T12:12:39;12.68;95.94
66722;SHT31;53633;49.932;10.884;2023-04-28T12:15:21;12.61;92.28
66722;SHT31;53633;49.932;10.884;2023-04-28T12:17:52;12.70;91.97
66722;SHT31;53633;49.932;10.884;2023-04-28T12:20:38;12.79;92.02
66722;SHT31;53633;49.932;10.884;2023-04-28T12:23:12;12.90;93.08
66722;SHT31;53633;49.932;10.884;2023-04-28T12:25:45;12.79;91.54
66722;SHT31;53633;49.932;10.884;2023-04-28T12:28:38;12.94;92.82
66722;SHT31;53633;49.932;10.884;2023-04-28T12:31:07;12.87;91.35
66722;SHT31;53633;49.932;10.884;2023-04-28T12:33:34;13.01;91.59
66722;SHT31;53633;49.932;10.884;2023-04-28T12:36:03;13.28;90.41
66722;SHT31;53633;49.932;10.884;2023-04-28T12:38:30;13.23;89.57
66722;SHT31;53633;49.932;10.884;2023-04-28T12:40:57;13.48;90.47
66722;SHT31;53633;49.932;10.884;2023-04-28T12:43:25;13.94;89.69
66722;SHT31;53633;49.932;10.884;2023-04-28T12:45:52;14.26;87.21
66722;SHT31;53633;49.932;10.884;2023-04-28T12:48:21;14.77;86.25
66722;SHT31;53633;49.932;10.884;2023-04-28T12:50:48;14.87;85.13
66722;SHT31;53633;49.932;10.884;2023-04-28T12:53:14;14.90;84.37
66722;SHT31;53633;49.932;10.884;2023-04-28T12:55:41;15.04;84.80
66722;SHT31;53633;49.932;10.884;2023-04-28T12:58:08;15.11;84.28
66722;SHT31;53633;49.932;10.884;2023-04-28T13:00:34;15.39;82.73
66722;SHT31;53633;49.932;10.884;2023-04-28T13:03:01;15.42;82.57
66722;SHT31;53633;49.932;10.884;2023-04-28T13:05:30;15.27;83.30
66722;SHT31;53633;49.932;10.884;2023-04-28T13:07:57;14.69;85.14
66722;SHT31;53633;49.932;10.884;2023-04-28T13:10:23;14.55;84.75
66722;SHT31;53633;49.932;10.884;2023-04-28T13:12:50;14.07;86.34
66722;SHT31;53633;49.932;10.884;2023-04-28T13:15:17;14.13;86.59
66722;SHT31;53633;49.932;10.884;2023-04-28T13:17:43;14.07;85.98
66722;SHT31;53633;49.932;10.884;2023-04-28T13:20:11;14.28;86.66
66722;SHT31;53633;49.932;10.884;2023-04-28T13:22:39;14.38;86.65
66722;SHT31;53633;49.932;10.884;2023-04-28T13:25:06;14.25;86.54
66722;SHT31;53633;49.932;10.884;2023-04-28T13:27:33;14.17;86.82
66722;SHT31;53633;49.932;10.884;2023-04-28T13:29:59;14.18;86.75
66722;SHT31;53633;49.932;10.884;2023-04-28T13:32:26;14.21;87.48
66722;SHT31;53633;49.932;10.884;2023-04-28T13:34:53;14.39;86.08
66722;SHT31;53633;49.932;10.884;2023-04-28T13:37:19;14.31;86.04
66722;SHT31;53633;49.932;10.884;2023-04-28T13:39:47;14.51;86.34
66722;SHT31;53633;49.932;10.884;2023-04-28T13:42:14;14.84;85.13
66722;SHT31;53633;49.932;10.884;2023-04-28T13:44:40;14.84;85.45
66722;SHT31;53633;49.932;10.884;2023-04-28T13:47:07;14.83;85.32
66722;SHT31;53633;49.932;10.884;2023-04-28T13:49:34;14.87;84.58
66722;SHT31;53633;49.932;10.884;2023-04-28T13:52:00;14.97;83.84
66722;SHT31;53633;49.932;10.884;2023-04-28T13:54:27;14.77;84.53
66722;SHT31;53633;49.932;10.884;2023-04-28T13:56:55;14.59;85.35
66722;SHT31;53633;49.932;10.884;2023-04-28T13:59:22;14.65;85.49
66722;SHT31;53633;49.932;10.884;2023-04-28T14:01:49;14.76;85.33
66722;SHT31;53633;49.932;10.884;2023-04-28T14:04:15;14.94;84.21
66722;SHT31;53633;49.932;10.884;2023-04-28T14:06:42;15.31;83.62
66722;SHT31;53633;49.932;10.884;2023-04-28T14:09:09;15.79;83.21
66722;SHT31;53633;49.932;10.884;2023-04-28T14:11:36;16.27;81.06
66722;SHT31;53633;49.932;10.884;2023-04-28T14:14:04;16.55;79.51
66722;SHT31;53633;49.932;10.884;2023-04-28T14:16:30;16.71;79.84
66722;SHT31;53633;49.932;10.884;2023-04-28T14:18:57;16.79;79.50
66722;SHT31;53633;49.932;10.884;2023-04-28T14:21:24;16.89;77.73
66722;SHT31;53633;49.932;10.884;2023-04-28T14:23:50;16.87;80.09
66722;SHT31;53633;49.932;10.884;2023-04-28T14:26:17;17.14;77.27
66722;SHT31;53633;49.932;10.884;2023-04-28T14:28:43;17.10;78.64
66722;SHT31;53633;49.932;10.884;2023-04-28T14:31:11;17.16;76.77
66722;SHT31;53633;49.932;10.884;2023-04-28T14:33:38;17.16;76.76
66722;SHT31;53633;49.932;10.884;2023-04-28T14:36:05;17.41;76.63
66722;SHT31;53633;49.932;10.884;2023-04-28T14:38:32;17.12;77.82
66722;SHT31;53633;49.932;10.884;2023-04-28T14:40:58;17.30;77.95
66722;SHT31;53633;49.932;10.884;2023-04-28T14:43:25;17.35;76.90
66722;SHT31;53633;49.932;10.884;2023-04-28T14:45:52;17.30;76.62
66722;SHT31;53633;49.932;10.884;2023-04-28T14:48:20;17.17;78.03
66722;SHT31;53633;49.932;10.884;2023-04-28T14:50:47;17.09;77.96
66722;SHT31;53633;49.932;10.884;2023-04-28T14:53:13;17.03;77.32
66722;SHT31;53633;49.932;10.884;2023-04-28T14:55:40;17.02;77.66
66722;SHT31;53633;49.932;10.884;2023-04-28T14:58:07;17.12;76.95
66722;SHT31;53633;49.932;10.884;2023-04-28T15:00:34;17.16;76.67
66722;SHT31;53633;49.932;10.884;2023-04-28T15:03:01;17.19;76.70
66722;SHT31;53633;49.932;10.884;2023-04-28T15:05:29;17.00;77.73
66722;SHT31;53633;49.932;10.884;2023-04-28T15:07:55;17.00;77.53
66722;SHT31;53633;49.932;10.884;2023-04-28T15:10:22;16.97;77.45
66722;SHT31;53633;49.932;10.884;2023-04-28T15:12:49;17.02;77.89
66722;SHT31;53633;49.932;10.884;2023-04-28T15:15:15;16.97;78.59
66722;SHT31;53633;49.932;10.884;2023-04-28T15:17:42;16.96;79.09
66722;SHT31;53633;49.932;10.884;2023-04-28T15:20:09;16.83;79.83
66722;SHT31;53633;49.932;10.884;2023-04-28T15:22:37;16.76;79.76
66722;SHT31;53633;49.932;10.884;2023-04-28T15:25:04;16.83;78.48
66722;SHT31;53633;49.932;10.884;2023-04-28T15:27:31;16.93;78.54
66722;SHT31;53633;49.932;10.884;2023-04-28T15:29:58;16.95;77.74
66722;SHT31;53633;49.932;10.884;2023-04-28T15:32:24;16.75;79.04
66722;SHT31;53633;49.932;10.884;2023-04-28T15:34:53;17.03;77.91
66722;SHT31;53633;49.932;10.884;2023-04-28T15:37:41;17.26;77.23
66722;SHT31;53633;49.932;10.884;2023-04-28T15:40:10;17.16;78.92
66722;SHT31;53633;49.932;10.884;2023-04-28T15:42:37;17.14;78.17
66722;SHT31;53633;49.932;10.884;2023-04-28T15:45:05;17.20;77.58
66722;SHT31;53633;49.932;10.884;2023-04-28T15:47:32;17.12;77.80